createdAt,value
2018-06-30T00:00:08.284Z,4.50
2018-06-30T00:00:41.973Z,4.55
2018-06-30T00:01:16.603Z,4.40
2018-06-30T00:01:50.166Z,5.15
2018-06-30T00:02:24.698Z,4.70
2018-06-30T00:02:58.511Z,4.15
2018-06-30T00:03:38.552Z,4.50
2018-06-30T00:04:12.772Z,4.37
2018-06-30T00:04:50.805Z,4.80
2018-06-30T00:05:25.708Z,4.72
2018-06-30T00:05:59.532Z,4.85
2018-06-30T00:06:33.193Z,4.97
2018-06-30T00:07:06.771Z,4.97
2018-06-30T00:07:40.024Z,4.87
2018-06-30T00:08:13.607Z,5.17
2018-06-30T00:08:47.939Z,4.50
2018-06-30T00:09:21.556Z,4.97
2018-06-30T00:09:55.678Z,5.37
2018-06-30T00:10:30.515Z,4.58
2018-06-30T00:11:04.143Z,4.85
2018-06-30T00:11:38.081Z,4.72
2018-06-30T00:12:11.713Z,4.70
2018-06-30T00:12:45.335Z,4.53
2018-06-30T00:13:18.937Z,4.50
2018-06-30T00:13:54.846Z,5.12
2018-06-30T00:14:28.496Z,4.80
2018-06-30T00:15:02.845Z,4.47
2018-06-30T00:15:36.820Z,4.90
2018-06-30T00:16:10.627Z,4.85
2018-06-30T00:16:44.309Z,5.20
2018-06-30T00:17:17.941Z,4.90
2018-06-30T00:17:52.204Z,4.90
2018-06-30T00:18:26.130Z,5.50
2018-06-30T00:19:00.923Z,5.05
2018-06-30T00:19:35.175Z,4.83
2018-06-30T00:20:08.849Z,5.10
2018-06-30T00:20:43.161Z,4.47
2018-06-30T00:21:16.808Z,4.93
2018-06-30T00:21:50.835Z,4.80
2018-06-30T00:22:24.905Z,5.00
2018-06-30T00:22:58.567Z,4.62
2018-06-30T00:23:32.747Z,5.35
2018-06-30T00:24:06.367Z,4.78
2018-06-30T00:24:40.472Z,4.45
2018-06-30T00:25:14.964Z,4.72
2018-06-30T00:25:48.637Z,4.70
2018-06-30T00:26:23.551Z,4.70
2018-06-30T00:27:03.055Z,4.65
2018-06-30T00:27:37.732Z,4.95
2018-06-30T00:28:11.381Z,5.00
2018-06-30T00:28:45.497Z,5.30
2018-06-30T00:29:19.828Z,5.20
2018-06-30T00:29:53.107Z,5.03
2018-06-30T00:30:27.967Z,4.78
2018-06-30T00:31:03.279Z,4.70
2018-06-30T00:31:36.883Z,4.90
2018-06-30T00:32:11.181Z,4.92
2018-06-30T00:32:45.248Z,5.22
2018-06-30T00:33:18.838Z,4.77
2018-06-30T00:33:53.702Z,4.28
2018-06-30T00:34:28.291Z,5.15
2018-06-30T00:35:01.941Z,4.95
2018-06-30T00:35:36.307Z,4.97
2018-06-30T00:36:10.527Z,5.00
2018-06-30T00:36:44.125Z,4.58
2018-06-30T00:37:18.182Z,4.60
2018-06-30T00:37:51.912Z,4.92
2018-06-30T00:38:26.245Z,4.72
2018-06-30T00:39:00.511Z,5.30
2018-06-30T00:39:34.149Z,5.10
2018-06-30T00:40:08.679Z,4.85
2018-06-30T00:40:43.077Z,4.60
2018-06-30T00:41:17.380Z,5.07
2018-06-30T00:41:51.798Z,4.85
2018-06-30T00:42:25.388Z,4.78
2018-06-30T00:43:00.398Z,4.65
2018-06-30T00:43:34.619Z,4.72
2018-06-30T00:44:08.214Z,4.85
2018-06-30T00:44:41.819Z,5.40
2018-06-30T00:45:15.416Z,4.90
2018-06-30T00:45:49.192Z,4.83
2018-06-30T00:46:23.364Z,4.47
2018-06-30T00:46:57.019Z,4.70
2018-06-30T00:47:30.808Z,4.60
2018-06-30T00:48:05.052Z,4.72
2018-06-30T00:48:38.649Z,5.05
2018-06-30T00:49:12.241Z,5.00
2018-06-30T00:49:45.888Z,4.85
2018-06-30T00:50:19.510Z,4.90
2018-06-30T00:50:54.546Z,4.78
2018-06-30T00:51:28.703Z,4.90
2018-06-30T00:52:04.184Z,4.90
2018-06-30T00:52:37.803Z,5.08
2018-06-30T00:53:11.555Z,4.90
2018-06-30T00:53:46.264Z,4.87
2018-06-30T00:54:19.884Z,5.37
2018-06-30T00:54:53.485Z,5.75
2018-06-30T00:55:27.098Z,5.10
2018-06-30T00:56:00.654Z,5.78
2018-06-30T00:56:34.679Z,4.70
2018-06-30T00:57:08.344Z,4.87
2018-06-30T00:57:42.569Z,5.17
2018-06-30T00:58:16.229Z,5.28
2018-06-30T00:58:50.348Z,4.67
2018-06-30T00:59:24.012Z,5.10
2018-06-30T00:59:57.579Z,4.90
2018-06-30T01:00:31.189Z,5.03
2018-06-30T01:01:04.758Z,5.40
2018-06-30T01:01:38.996Z,4.97
2018-06-30T01:02:12.575Z,5.45
2018-06-30T01:02:46.157Z,5.53
2018-06-30T01:03:19.727Z,5.17
2018-06-30T01:03:53.378Z,5.28
2018-06-30T01:04:27.729Z,5.15
2018-06-30T01:05:01.271Z,5.08
2018-06-30T01:05:35.395Z,5.30
2018-06-30T01:06:09.608Z,5.08
2018-06-30T01:06:43.983Z,5.00
2018-06-30T01:07:17.576Z,5.43
2018-06-30T01:07:51.149Z,5.08
2018-06-30T01:08:24.895Z,5.30
2018-06-30T01:08:58.499Z,5.85
2018-06-30T01:09:32.686Z,5.12
2018-06-30T01:10:06.315Z,5.40
2018-06-30T01:10:39.890Z,5.40
2018-06-30T01:11:13.614Z,5.42
2018-06-30T01:11:47.247Z,4.90
2018-06-30T01:12:21.348Z,5.17
2018-06-30T01:12:56.144Z,5.28
2018-06-30T01:13:29.732Z,4.72
2018-06-30T01:14:03.991Z,5.28
2018-06-30T01:14:38.147Z,5.08
2018-06-30T01:15:13.143Z,5.37
2018-06-30T01:15:47.356Z,5.37
2018-06-30T01:16:21.115Z,5.65
2018-06-30T01:16:56.720Z,5.42
2018-06-30T01:17:30.398Z,4.95
2018-06-30T01:18:04.053Z,5.58
2018-06-30T01:18:37.839Z,5.45
2018-06-30T01:19:12.129Z,5.37
2018-06-30T01:19:45.702Z,5.80
2018-06-30T01:20:20.653Z,5.92
2018-06-30T01:20:54.565Z,5.90
2018-06-30T01:21:28.151Z,5.73
2018-06-30T01:22:02.487Z,5.47
2018-06-30T01:22:36.671Z,5.90
2018-06-30T01:23:10.701Z,5.54
2018-06-30T01:23:44.472Z,5.75
2018-06-30T01:24:18.755Z,5.62
2018-06-30T01:24:53.632Z,5.72
2018-06-30T01:25:27.840Z,6.00
2018-06-30T01:26:01.957Z,5.65
2018-06-30T01:26:35.623Z,6.40
2018-06-30T01:27:09.887Z,5.55
2018-06-30T01:27:44.131Z,6.03
2018-06-30T01:28:19.163Z,6.35
2018-06-30T01:28:53.537Z,5.87
2018-06-30T01:29:27.661Z,6.30
2018-06-30T01:30:01.265Z,6.10
2018-06-30T01:30:35.749Z,5.97
2018-06-30T01:31:10.743Z,5.86
2018-06-30T01:31:44.420Z,5.60
2018-06-30T01:32:19.159Z,5.87
2018-06-30T01:32:52.873Z,6.05
2018-06-30T01:33:26.464Z,6.17
2018-06-30T01:34:00.128Z,6.05
2018-06-30T01:34:34.228Z,5.75
2018-06-30T01:35:08.372Z,5.85
2018-06-30T01:35:42.530Z,5.30
2018-06-30T01:36:16.480Z,6.08
2018-06-30T01:36:51.749Z,5.70
2018-06-30T01:37:25.393Z,6.23
2018-06-30T01:37:59.724Z,6.60
2018-06-30T01:38:33.292Z,6.08
2018-06-30T01:39:09.030Z,6.10
2018-06-30T01:39:42.686Z,6.47
2018-06-30T01:40:17.161Z,6.62
2018-06-30T01:40:51.113Z,6.22
2018-06-30T01:41:25.608Z,6.20
2018-06-30T01:41:59.283Z,5.95
2018-06-30T01:42:33.015Z,6.42
2018-06-30T01:43:06.601Z,5.55
2018-06-30T01:43:40.193Z,6.42
2018-06-30T01:44:13.811Z,6.40
2018-06-30T01:44:48.815Z,6.20
2018-06-30T01:45:22.404Z,6.37
2018-06-30T01:45:56.028Z,6.12
2018-06-30T01:46:29.636Z,6.30
2018-06-30T01:47:04.660Z,6.45
2018-06-30T01:47:39.284Z,6.67
2018-06-30T01:48:12.892Z,6.70
2018-06-30T01:48:46.448Z,5.92
2018-06-30T01:49:20.836Z,6.30
2018-06-30T01:49:55.015Z,6.03
2018-06-30T01:50:28.306Z,5.90
2018-06-30T01:51:02.478Z,6.05
2018-06-30T01:51:36.935Z,6.75
2018-06-30T01:52:10.528Z,6.15
2018-06-30T01:52:44.262Z,6.03
2018-06-30T01:53:18.529Z,6.47
2018-06-30T01:53:52.129Z,6.45
2018-06-30T01:54:25.676Z,6.58
2018-06-30T01:54:59.308Z,6.35
2018-06-30T01:55:34.075Z,6.00
2018-06-30T01:56:08.308Z,6.22
2018-06-30T01:56:41.905Z,6.75
2018-06-30T01:57:15.607Z,6.40
2018-06-30T01:57:49.170Z,6.45
2018-06-30T01:58:24.263Z,6.47
2018-06-30T01:58:57.833Z,6.87
2018-06-30T01:59:31.700Z,6.05
2018-06-30T02:00:06.068Z,6.55
2018-06-30T02:00:39.703Z,6.80
2018-06-30T02:01:13.252Z,6.67
2018-06-30T02:01:47.583Z,6.80
2018-06-30T02:02:22.373Z,6.78
2018-06-30T02:02:55.939Z,7.08
2018-06-30T02:03:30.191Z,6.70
2018-06-30T02:04:03.859Z,6.90
2018-06-30T02:04:37.572Z,6.62
2018-06-30T02:05:11.823Z,7.20
2018-06-30T02:05:45.407Z,7.42
2018-06-30T02:06:18.999Z,6.70
2018-06-30T02:06:53.553Z,6.70
2018-06-30T02:07:27.107Z,6.50
2018-06-30T02:08:00.698Z,6.95
2018-06-30T02:08:35.359Z,7.10
2018-06-30T02:09:11.095Z,6.78
2018-06-30T02:09:45.250Z,6.92
2018-06-30T02:10:19.742Z,6.87
2018-06-30T02:10:54.553Z,7.70
2018-06-30T02:11:29.060Z,7.00
2018-06-30T02:12:02.687Z,7.12
2018-06-30T02:12:36.983Z,6.28
2018-06-30T02:13:11.201Z,7.10
2018-06-30T02:13:44.917Z,7.20
2018-06-30T02:14:18.640Z,6.40
2018-06-30T02:14:53.468Z,7.03
2018-06-30T02:15:27.607Z,6.40
2018-06-30T02:16:01.276Z,7.08
2018-06-30T02:16:34.897Z,6.80
2018-06-30T02:17:08.508Z,7.45
2018-06-30T02:17:42.163Z,7.03
2018-06-30T02:18:16.995Z,6.85
2018-06-30T02:18:50.621Z,6.67
2018-06-30T02:19:24.205Z,6.47
2018-06-30T02:19:59.236Z,6.75
2018-06-30T02:20:32.848Z,7.42
2018-06-30T02:21:06.511Z,7.05
2018-06-30T02:21:40.919Z,7.33
2018-06-30T02:22:14.412Z,6.37
2018-06-30T02:22:48.019Z,6.83
2018-06-30T02:23:21.878Z,6.87
2018-06-30T02:23:56.268Z,6.10
2018-06-30T02:24:29.845Z,6.62
2018-06-30T02:25:03.468Z,6.83
2018-06-30T02:25:37.833Z,6.78
2018-06-30T02:26:11.511Z,6.75
2018-06-30T02:26:45.063Z,6.87
2018-06-30T02:27:18.680Z,7.03
2018-06-30T02:27:52.409Z,6.83
2018-06-30T02:28:26.044Z,7.12
2018-06-30T02:28:59.786Z,6.75
2018-06-30T02:29:33.359Z,7.60
2018-06-30T02:30:07.937Z,6.95
2018-06-30T02:30:41.552Z,7.10
2018-06-30T02:31:15.895Z,7.40
2018-06-30T02:31:49.513Z,7.12
2018-06-30T02:32:23.732Z,7.45
2018-06-30T02:32:58.098Z,7.17
2018-06-30T02:33:31.666Z,7.35
2018-06-30T02:34:06.200Z,7.60
2018-06-30T02:34:39.773Z,7.50
2018-06-30T02:35:13.349Z,7.22
2018-06-30T02:35:47.014Z,6.40
2018-06-30T02:36:20.622Z,7.03
2018-06-30T02:36:54.175Z,7.25
2018-06-30T02:37:27.889Z,7.60
2018-06-30T02:38:02.004Z,7.35
2018-06-30T02:38:35.607Z,8.18
2018-06-30T02:39:11.233Z,7.92
2018-06-30T02:39:44.780Z,7.58
2018-06-30T02:40:18.466Z,7.92
2018-06-30T02:40:53.728Z,6.95
2018-06-30T02:41:27.925Z,7.23
2018-06-30T02:42:03.480Z,7.50
2018-06-30T02:42:37.834Z,7.50
2018-06-30T02:43:11.525Z,7.80
2018-06-30T02:43:45.109Z,8.08
2018-06-30T02:44:18.691Z,8.05
2018-06-30T02:44:53.550Z,7.55
2018-06-30T02:45:27.796Z,7.57
2018-06-30T02:46:02.104Z,7.83
2018-06-30T02:46:36.458Z,7.58
2018-06-30T02:47:10.110Z,7.20
2018-06-30T02:47:44.376Z,7.58
2018-06-30T02:48:18.004Z,7.90
2018-06-30T02:48:52.942Z,8.13
2018-06-30T02:49:26.604Z,7.93
2018-06-30T02:50:01.097Z,7.80
2018-06-30T02:50:35.336Z,8.30
2018-06-30T02:51:08.909Z,7.97
2018-06-30T02:51:42.553Z,8.18
2018-06-30T02:52:16.252Z,8.33
2018-06-30T02:52:49.883Z,7.53
2018-06-30T02:53:23.472Z,8.07
2018-06-30T02:53:57.035Z,7.58
2018-06-30T02:54:31.195Z,8.03
2018-06-30T02:55:04.988Z,7.83
2018-06-30T02:55:38.572Z,7.22
2018-06-30T02:56:11.828Z,7.83
2018-06-30T02:56:45.409Z,8.23
2018-06-30T02:57:19.680Z,7.83
2018-06-30T02:57:53.313Z,7.70
2018-06-30T02:58:26.923Z,8.10
2018-06-30T02:59:02.071Z,8.68
2018-06-30T02:59:35.687Z,8.18
2018-06-30T03:00:09.319Z,8.18
2018-06-30T03:00:43.299Z,9.30
2018-06-30T03:01:16.973Z,8.33
2018-06-30T03:01:50.937Z,8.15
2018-06-30T03:02:24.762Z,8.20
2018-06-30T03:02:58.395Z,7.92
2018-06-30T03:03:32.597Z,7.72
2018-06-30T03:04:07.212Z,7.50
2018-06-30T03:04:40.807Z,7.87
2018-06-30T03:05:14.384Z,8.20
2018-06-30T03:05:48.001Z,8.38
2018-06-30T03:06:21.568Z,7.67
2018-06-30T03:06:55.180Z,8.23
2018-06-30T03:07:29.216Z,8.80
2018-06-30T03:08:04.201Z,8.95
2018-06-30T03:08:37.837Z,8.08
2018-06-30T03:09:11.825Z,8.25
2018-06-30T03:09:45.447Z,7.97
2018-06-30T03:10:19.589Z,8.13
2018-06-30T03:10:53.717Z,8.73
2018-06-30T03:11:27.344Z,8.98
2018-06-30T03:12:01.006Z,8.55
2018-06-30T03:12:34.614Z,8.58
2018-06-30T03:13:08.190Z,8.53
2018-06-30T03:13:41.798Z,8.75
2018-06-30T03:14:15.403Z,8.20
2018-06-30T03:14:49.692Z,8.85
2018-06-30T03:15:23.314Z,7.70
2018-06-30T03:15:56.952Z,8.30
2018-06-30T03:16:30.230Z,8.60
2018-06-30T03:17:03.996Z,9.23
2018-06-30T03:17:38.994Z,8.55
2018-06-30T03:18:12.884Z,9.10
2018-06-30T03:18:48.452Z,8.60
2018-06-30T03:19:22.032Z,9.00
2018-06-30T03:19:55.593Z,9.00
2018-06-30T03:20:29.973Z,9.13
2018-06-30T03:21:04.697Z,8.90
2018-06-30T03:21:38.951Z,9.20
2018-06-30T03:22:13.133Z,8.98
2018-06-30T03:22:46.766Z,8.90
2018-06-30T03:23:20.407Z,8.88
2018-06-30T03:23:54.601Z,8.43
2018-06-30T03:24:28.239Z,8.75
2018-06-30T03:25:01.881Z,9.23
2018-06-30T03:25:37.594Z,8.75
2018-06-30T03:26:11.258Z,9.25
2018-06-30T03:26:44.903Z,9.13
2018-06-30T03:27:19.912Z,8.73
2018-06-30T03:27:53.635Z,8.55
2018-06-30T03:28:28.080Z,9.23
2018-06-30T03:29:02.522Z,9.38
2018-06-30T03:29:36.394Z,8.95
2018-06-30T03:30:10.123Z,9.03
2018-06-30T03:30:43.677Z,9.23
2018-06-30T03:31:17.305Z,9.30
2018-06-30T03:31:50.923Z,9.28
2018-06-30T03:32:24.511Z,9.28
2018-06-30T03:32:59.223Z,9.95
2018-06-30T03:33:32.905Z,8.90
2018-06-30T03:34:06.475Z,9.10
2018-06-30T03:34:40.132Z,9.08
2018-06-30T03:35:14.253Z,8.70
2018-06-30T03:35:47.890Z,9.90
2018-06-30T03:36:21.555Z,9.13
2018-06-30T03:36:55.798Z,9.23
2018-06-30T03:37:29.811Z,7.90
2018-06-30T03:38:03.716Z,9.18
2018-06-30T03:38:38.498Z,9.05
2018-06-30T03:39:11.855Z,9.10
2018-06-30T03:39:45.464Z,9.00
2018-06-30T03:40:19.058Z,8.58
2018-06-30T03:40:52.624Z,9.03
2018-06-30T03:41:26.434Z,8.93
2018-06-30T03:42:00.137Z,8.98
2018-06-30T03:42:35.039Z,9.83
2018-06-30T03:43:09.422Z,9.40
2018-06-30T03:43:43.052Z,9.60
2018-06-30T03:44:16.673Z,9.23
2018-06-30T03:44:50.287Z,9.43
2018-06-30T03:45:23.833Z,9.50
2018-06-30T03:45:57.433Z,9.65
2018-06-30T03:46:32.510Z,9.53
2018-06-30T03:47:06.254Z,9.58
2018-06-30T03:47:40.975Z,9.33
2018-06-30T03:48:14.575Z,9.65
2018-06-30T03:48:48.172Z,9.20
2018-06-30T03:49:22.283Z,9.60
2018-06-30T03:49:56.537Z,9.58
2018-06-30T03:50:30.115Z,9.73
2018-06-30T03:51:04.475Z,8.88
2018-06-30T03:51:38.060Z,10.23
2018-06-30T03:52:12.661Z,9.25
2018-06-30T03:52:46.291Z,9.40
2018-06-30T03:53:20.224Z,9.67
2018-06-30T03:53:54.394Z,9.78
2018-06-30T03:54:27.964Z,9.60
2018-06-30T03:55:01.596Z,9.48
2018-06-30T03:55:35.341Z,9.48
2018-06-30T03:56:08.876Z,10.08
2018-06-30T03:56:43.105Z,10.13
2018-06-30T03:57:17.308Z,10.10
2018-06-30T03:57:50.947Z,10.03
2018-06-30T03:58:24.610Z,9.45
2018-06-30T03:58:58.250Z,10.08
2018-06-30T03:59:32.446Z,9.98
2018-06-30T04:00:06.707Z,9.78
2018-06-30T04:00:40.288Z,10.50
2018-06-30T04:01:14.414Z,9.58
2018-06-30T04:01:48.609Z,10.53
2018-06-30T04:02:22.201Z,9.78
2018-06-30T04:02:55.780Z,9.98
2018-06-30T04:03:30.107Z,9.70
2018-06-30T04:04:03.707Z,9.45
2018-06-30T04:04:37.616Z,9.60
2018-06-30T04:05:11.886Z,9.93
2018-06-30T04:05:45.449Z,9.70
2018-06-30T04:06:19.775Z,10.35
2018-06-30T04:06:53.476Z,10.45
2018-06-30T04:07:27.375Z,9.93
2018-06-30T04:08:02.007Z,11.05
2018-06-30T04:08:36.152Z,10.18
2018-06-30T04:09:12.115Z,10.48
2018-06-30T04:09:46.274Z,9.90
2018-06-30T04:10:21.096Z,10.72
2018-06-30T04:10:54.700Z,10.60
2018-06-30T04:11:28.255Z,9.80
2018-06-30T04:12:01.879Z,10.05
2018-06-30T04:12:36.317Z,10.00
2018-06-30T04:13:10.324Z,9.80
2018-06-30T04:13:43.955Z,10.43
2018-06-30T04:14:17.540Z,10.70
2018-06-30T04:14:50.824Z,10.18
2018-06-30T04:15:26.329Z,9.93
2018-06-30T04:16:00.453Z,10.50
2018-06-30T04:16:34.989Z,9.83
2018-06-30T04:17:09.204Z,10.28
2018-06-30T04:17:42.972Z,10.53
2018-06-30T04:18:16.632Z,10.53
2018-06-30T04:18:50.271Z,9.88
2018-06-30T04:19:23.863Z,10.93
2018-06-30T04:19:57.457Z,10.20
2018-06-30T04:20:31.662Z,10.78
2018-06-30T04:21:05.324Z,10.75
2018-06-30T04:21:38.961Z,10.58
2018-06-30T04:22:13.178Z,10.48
2018-06-30T04:22:46.871Z,10.82
2018-06-30T04:23:21.464Z,10.63
2018-06-30T04:23:55.996Z,10.50
2018-06-30T04:24:29.700Z,9.83
2018-06-30T04:25:03.339Z,10.45
2018-06-30T04:25:37.639Z,10.00
2018-06-30T04:26:12.180Z,9.43
2018-06-30T04:26:45.864Z,10.85
2018-06-30T04:27:19.822Z,10.30
2018-06-30T04:27:54.328Z,10.98
2018-06-30T04:28:28.041Z,10.50
2018-06-30T04:29:03.668Z,10.03
2018-06-30T04:29:37.936Z,10.30
2018-06-30T04:30:11.611Z,10.43
2018-06-30T04:30:45.224Z,9.63
2018-06-30T04:31:19.768Z,10.20
2018-06-30T04:31:53.427Z,9.55
2018-06-30T04:32:27.086Z,10.58
2018-06-30T04:33:00.686Z,10.08
2018-06-30T04:33:35.436Z,11.05
2018-06-30T04:34:09.441Z,10.00
2018-06-30T04:34:44.444Z,10.60
2018-06-30T04:35:18.151Z,10.40
2018-06-30T04:35:52.397Z,9.95
2018-06-30T04:36:26.064Z,9.85
2018-06-30T04:36:59.821Z,10.80
2018-06-30T04:37:33.443Z,10.90
2018-06-30T04:38:07.199Z,10.93
2018-06-30T04:38:41.623Z,9.95
2018-06-30T04:39:16.625Z,10.45
2018-06-30T04:39:50.292Z,10.65
2018-06-30T04:40:23.838Z,10.55
2018-06-30T04:40:57.436Z,10.53
2018-06-30T04:41:31.797Z,10.23
2018-06-30T04:42:06.349Z,10.00
2018-06-30T04:42:40.851Z,10.75
2018-06-30T04:43:15.206Z,10.32
2018-06-30T04:43:49.369Z,10.40
2018-06-30T04:44:23.525Z,10.53
2018-06-30T04:44:57.174Z,10.80
2018-06-30T04:45:31.368Z,11.18
2018-06-30T04:46:05.651Z,10.25
2018-06-30T04:46:39.533Z,10.82
2018-06-30T04:47:13.892Z,10.30
2018-06-30T04:47:49.148Z,10.68
2018-06-30T04:48:23.422Z,11.38
2018-06-30T04:48:57.300Z,11.20
2018-06-30T04:49:31.463Z,10.15
2018-06-30T04:50:05.103Z,10.50
2018-06-30T04:50:38.687Z,11.68
2018-06-30T04:51:13.082Z,11.30
2018-06-30T04:51:46.331Z,11.25
2018-06-30T04:52:20.724Z,11.22
2018-06-30T04:52:54.888Z,11.35
2018-06-30T04:53:29.170Z,10.72
2018-06-30T04:54:03.456Z,11.33
2018-06-30T04:54:38.817Z,11.12
2018-06-30T04:55:12.468Z,11.53
2018-06-30T04:55:46.467Z,10.90
2018-06-30T04:56:21.259Z,11.53
2018-06-30T04:56:54.880Z,11.40
2018-06-30T04:57:28.561Z,11.00
2018-06-30T04:58:02.916Z,11.97
2018-06-30T04:58:36.201Z,11.05
2018-06-30T04:59:10.743Z,11.34
2018-06-30T04:59:44.369Z,11.38
2018-06-30T05:00:19.551Z,10.75
2018-06-30T05:00:53.601Z,11.05
2018-06-30T05:01:27.816Z,11.10
2018-06-30T05:02:01.849Z,11.43
2018-06-30T05:02:36.169Z,11.25
2018-06-30T05:03:11.599Z,11.38
2018-06-30T05:03:45.199Z,11.08
2018-06-30T05:04:19.074Z,11.00
2018-06-30T05:04:56.488Z,11.10
2018-06-30T05:05:30.605Z,11.68
2018-06-30T05:06:05.168Z,11.63
2018-06-30T05:06:38.751Z,11.22
2018-06-30T05:07:13.458Z,10.90
2018-06-30T05:07:47.371Z,10.72
2018-06-30T05:08:20.940Z,11.08
2018-06-30T05:08:54.596Z,11.10
2018-06-30T05:09:29.141Z,11.43
2018-06-30T05:10:03.450Z,11.00
2018-06-30T05:10:37.683Z,11.12
2018-06-30T05:11:12.012Z,11.45
2018-06-30T05:11:46.056Z,10.60
2018-06-30T05:12:19.658Z,10.63
2018-06-30T05:12:53.259Z,11.35
2018-06-30T05:13:26.814Z,10.48
2018-06-30T05:14:00.353Z,10.48
2018-06-30T05:14:35.381Z,10.65
2018-06-30T05:15:09.582Z,10.72
2018-06-30T05:15:44.129Z,11.35
2018-06-30T05:16:18.185Z,10.70
2018-06-30T05:16:51.732Z,10.90
2018-06-30T05:17:25.814Z,10.90
2018-06-30T05:17:59.360Z,11.18
2018-06-30T05:18:33.469Z,10.53
2018-06-30T05:19:07.294Z,11.48
2018-06-30T05:19:41.465Z,11.35
2018-06-30T05:20:15.046Z,11.15
2018-06-30T05:20:50.389Z,11.20
2018-06-30T05:21:23.984Z,11.17
2018-06-30T05:21:57.567Z,10.90
2018-06-30T05:22:32.754Z,10.53
2018-06-30T05:23:06.375Z,9.78
2018-06-30T05:23:39.924Z,10.43
2018-06-30T05:24:14.370Z,10.70
2018-06-30T05:24:47.896Z,11.30
2018-06-30T05:25:21.519Z,10.75
2018-06-30T05:25:55.189Z,10.85
2018-06-30T05:26:28.796Z,10.50
2018-06-30T05:27:02.381Z,10.82
2018-06-30T05:27:35.986Z,10.80
2018-06-30T05:28:10.097Z,10.90
2018-06-30T05:28:43.704Z,11.03
2018-06-30T05:29:17.975Z,10.70
2018-06-30T05:29:51.518Z,10.48
2018-06-30T05:30:25.145Z,10.28
2018-06-30T05:30:58.743Z,10.80
2018-06-30T05:31:32.690Z,10.65
2018-06-30T05:32:06.269Z,11.28
2018-06-30T05:32:40.554Z,10.60
2018-06-30T05:33:14.221Z,10.72
2018-06-30T05:33:47.804Z,10.78
2018-06-30T05:34:21.367Z,11.03
2018-06-30T05:34:54.906Z,11.08
2018-06-30T05:35:29.217Z,10.53
2018-06-30T05:36:03.410Z,10.68
2018-06-30T05:36:37.615Z,10.32
2018-06-30T05:37:11.260Z,10.30
2018-06-30T05:37:44.804Z,10.68
2018-06-30T05:38:18.424Z,10.58
2018-06-30T05:38:52.048Z,10.50
2018-06-30T05:39:25.583Z,10.77
2018-06-30T05:39:59.688Z,10.20
2018-06-30T05:40:33.699Z,11.05
2018-06-30T05:41:08.132Z,10.60
2018-06-30T05:41:41.702Z,11.28
2018-06-30T05:42:16.031Z,10.45
2018-06-30T05:42:49.555Z,11.05
2018-06-30T05:43:23.853Z,9.97
2018-06-30T05:43:57.524Z,9.95
2018-06-30T05:44:31.799Z,10.82
2018-06-30T05:45:06.094Z,10.45
2018-06-30T05:45:39.729Z,10.70
2018-06-30T05:46:13.341Z,10.65
2018-06-30T05:46:46.887Z,10.28
2018-06-30T05:47:20.446Z,10.10
2018-06-30T05:47:54.028Z,10.35
2018-06-30T05:48:28.383Z,10.88
2018-06-30T05:49:02.040Z,11.00
2018-06-30T05:49:35.259Z,10.88
2018-06-30T05:50:08.889Z,10.20
2018-06-30T05:50:42.440Z,9.73
2018-06-30T05:51:16.011Z,10.53
2018-06-30T05:51:49.567Z,11.33
2018-06-30T05:52:23.134Z,10.78
2018-06-30T05:52:56.730Z,10.65
2018-06-30T05:53:30.536Z,10.38
2018-06-30T05:54:04.156Z,9.85
2018-06-30T05:54:37.809Z,9.63
2018-06-30T05:55:11.390Z,10.00
2018-06-30T05:55:45.795Z,10.15
2018-06-30T05:56:20.111Z,10.40
2018-06-30T05:56:54.037Z,11.28
2018-06-30T05:57:27.628Z,10.45
2018-06-30T05:58:01.241Z,10.48
2018-06-30T05:58:34.800Z,10.10
2018-06-30T05:59:08.374Z,10.08
2018-06-30T05:59:43.104Z,10.08
2018-06-30T06:00:16.796Z,9.38
2018-06-30T06:00:50.351Z,9.68
2018-06-30T06:01:24.058Z,9.50
2018-06-30T06:01:57.659Z,9.03
2018-06-30T06:02:31.732Z,9.58
2018-06-30T06:03:05.993Z,10.18
2018-06-30T06:03:39.568Z,9.53
2018-06-30T06:04:13.196Z,9.25
2018-06-30T06:04:46.780Z,10.08
2018-06-30T06:05:21.062Z,10.13
2018-06-30T06:05:55.226Z,9.75
2018-06-30T06:06:28.824Z,10.18
2018-06-30T06:07:02.764Z,9.35
2018-06-30T06:07:36.304Z,9.15
2018-06-30T06:08:09.961Z,9.25
2018-06-30T06:08:43.527Z,8.60
2018-06-30T06:09:17.704Z,8.77
2018-06-30T06:09:51.355Z,9.23
2018-06-30T06:10:24.810Z,9.80
2018-06-30T06:10:59.017Z,10.32
2018-06-30T06:11:32.536Z,9.58
2018-06-30T06:12:06.152Z,9.03
2018-06-30T06:12:39.723Z,8.53
2018-06-30T06:13:13.349Z,9.20
2018-06-30T06:13:46.922Z,9.20
2018-06-30T06:14:20.484Z,8.70
2018-06-30T06:14:54.555Z,9.70
2018-06-30T06:15:28.242Z,9.33
2018-06-30T06:16:01.825Z,9.73
2018-06-30T06:16:35.880Z,9.18
2018-06-30T06:17:09.420Z,8.13
2018-06-30T06:17:43.172Z,9.08
2018-06-30T06:18:16.732Z,8.98
2018-06-30T06:18:50.308Z,8.78
2018-06-30T06:19:23.898Z,9.30
2018-06-30T06:19:57.540Z,9.68
2018-06-30T06:20:32.262Z,9.20
2018-06-30T06:21:05.845Z,9.43
2018-06-30T06:21:40.009Z,8.93
2018-06-30T06:22:14.176Z,8.58
2018-06-30T06:22:47.738Z,9.40
2018-06-30T06:23:20.991Z,8.75
2018-06-30T06:23:54.651Z,8.15
2018-06-30T06:24:28.186Z,8.35
2018-06-30T06:25:02.267Z,8.80
2018-06-30T06:25:35.963Z,9.00
2018-06-30T06:26:09.578Z,9.00
2018-06-30T06:26:44.221Z,8.70
2018-06-30T06:27:18.581Z,7.70
2018-06-30T06:27:52.161Z,9.00
2018-06-30T06:28:26.304Z,8.50
2018-06-30T06:28:59.848Z,8.58
2018-06-30T06:29:33.464Z,8.60
2018-06-30T06:30:08.262Z,8.00
2018-06-30T06:30:41.891Z,8.55
2018-06-30T06:31:15.452Z,8.55
2018-06-30T06:31:49.010Z,8.48
2018-06-30T06:32:22.554Z,8.53
2018-06-30T06:32:56.138Z,8.90
2018-06-30T06:33:29.696Z,8.70
2018-06-30T06:34:03.297Z,8.88
2018-06-30T06:34:37.547Z,8.60
2018-06-30T06:35:12.040Z,7.72
2018-06-30T06:35:45.580Z,7.35
2018-06-30T06:36:19.430Z,7.90
2018-06-30T06:36:53.609Z,9.08
2018-06-30T06:37:28.064Z,9.63
2018-06-30T06:38:02.309Z,9.00
2018-06-30T06:38:35.864Z,8.33
2018-06-30T06:39:11.564Z,8.45
2018-06-30T06:39:45.162Z,7.45
2018-06-30T06:40:19.560Z,8.13
2018-06-30T06:40:53.132Z,8.03
2018-06-30T06:41:26.719Z,8.35
2018-06-30T06:42:00.364Z,7.62
2018-06-30T06:42:33.942Z,8.05
2018-06-30T06:43:08.160Z,7.87
2018-06-30T06:43:41.804Z,8.13
2018-06-30T06:44:15.493Z,7.20
2018-06-30T06:44:49.096Z,7.30
2018-06-30T06:45:22.940Z,7.58
2018-06-30T06:45:56.548Z,8.00
2018-06-30T06:46:30.111Z,7.75
2018-06-30T06:47:04.421Z,8.00
2018-06-30T06:47:38.570Z,8.00
2018-06-30T06:48:12.877Z,7.72
2018-06-30T06:48:46.448Z,8.08
2018-06-30T06:49:20.855Z,7.57
2018-06-30T06:49:54.400Z,7.53
2018-06-30T06:50:27.971Z,7.58
2018-06-30T06:51:01.558Z,8.25
2018-06-30T06:51:35.185Z,8.03
2018-06-30T06:52:09.273Z,8.68
2018-06-30T06:52:42.851Z,7.22
2018-06-30T06:53:17.095Z,7.60
2018-06-30T06:53:50.728Z,7.05
2018-06-30T06:54:24.259Z,7.62
2018-06-30T06:54:57.827Z,7.62
2018-06-30T06:55:31.407Z,8.00
2018-06-30T06:56:05.070Z,7.10
2018-06-30T06:56:38.622Z,8.03
2018-06-30T06:57:12.204Z,7.22
2018-06-30T06:57:47.001Z,6.58
2018-06-30T06:58:21.062Z,6.87
2018-06-30T06:58:54.983Z,6.95
2018-06-30T06:59:28.541Z,6.40
2018-06-30T07:00:02.077Z,6.50
2018-06-30T07:00:35.677Z,6.70
2018-06-30T07:01:09.252Z,6.37
2018-06-30T07:01:42.817Z,6.30
2018-06-30T07:02:16.876Z,6.62
2018-06-30T07:02:50.215Z,5.87
2018-06-30T07:03:23.861Z,6.17
2018-06-30T07:03:57.408Z,6.12
2018-06-30T07:04:30.925Z,6.50
2018-06-30T07:05:04.895Z,6.75
2018-06-30T07:05:38.566Z,6.30
2018-06-30T07:06:12.802Z,6.33
2018-06-30T07:06:46.406Z,6.40
2018-06-30T07:07:19.946Z,6.00
2018-06-30T07:07:54.080Z,6.08
2018-06-30T07:08:27.732Z,5.58
2018-06-30T07:09:02.668Z,6.72
2018-06-30T07:09:36.207Z,5.92
2018-06-30T07:10:09.787Z,5.75
2018-06-30T07:10:43.355Z,6.35
2018-06-30T07:11:16.979Z,5.83
2018-06-30T07:11:51.228Z,6.30
2018-06-30T07:12:24.894Z,5.50
2018-06-30T07:12:59.090Z,6.20
2018-06-30T07:13:32.729Z,6.33
2018-06-30T07:14:06.332Z,6.05
2018-06-30T07:14:39.950Z,5.60
2018-06-30T07:15:13.533Z,6.28
2018-06-30T07:15:47.109Z,6.35
2018-06-30T07:16:20.653Z,6.33
2018-06-30T07:16:54.244Z,6.33
2018-06-30T07:17:28.257Z,6.15
2018-06-30T07:18:01.817Z,6.47
2018-06-30T07:18:36.290Z,6.70
2018-06-30T07:19:10.461Z,6.34
2018-06-30T07:19:44.017Z,5.78
2018-06-30T07:20:18.200Z,6.62
2018-06-30T07:20:51.774Z,6.20
2018-06-30T07:21:25.507Z,6.40
2018-06-30T07:22:00.076Z,6.10
2018-06-30T07:22:33.791Z,6.25
2018-06-30T07:23:08.003Z,5.97
2018-06-30T07:23:41.782Z,5.78
2018-06-30T07:24:15.184Z,5.55
2018-06-30T07:24:48.772Z,6.20
2018-06-30T07:25:22.360Z,6.20
2018-06-30T07:25:56.003Z,6.72
2018-06-30T07:26:29.556Z,6.22
2018-06-30T07:27:03.089Z,5.58
2018-06-30T07:27:37.329Z,6.00
2018-06-30T07:28:11.079Z,6.85
2018-06-30T07:28:45.228Z,5.65